sensor_id;sensor_type;location;lat;lon;timestamp;pressure;altitude;pressure_sealevel;temperature;humidity
46223;BME280;31943;51.410;7.564;2022-08-11T00:00:20;100921.81;;;19.86;47.97
46223;BME280;31943;51.410;7.564;2022-08-11T00:03:03;100920.13;;;19.82;48.24
46223;BME280;31943;51.410;7.564;2022-08-11T00:05:29;100919.31;;;19.77;48.00
46223;BME280;31943;51.410;7.564;2022-08-11T00:07:56;100922.00;;;19.73;48.03
46223;BME280;31943;51.410;7.564;2022-08-11T00:10:24;100916.78;;;19.69;48.06
46223;BME280;31943;51.410;7.564;2022-08-11T00:12:51;100919.50;;;19.64;48.05
46223;BME280;31943;51.410;7.564;2022-08-11T00:15:17;100923.97;;;19.61;48.47
46223;BME280;31943;51.410;7.564;2022-08-11T00:17:45;100917.84;;;19.57;48.22
46223;BME280;31943;51.410;7.564;2022-08-11T00:20:16;100910.00;;;19.52;48.55
46223;BME280;31943;51.410;7.564;2022-08-11T00:22:44;100911.84;;;19.47;48.72
46223;BME280;31943;51.410;7.564;2022-08-11T00:25:12;100910.06;;;19.46;48.83
46223;BME280;31943;51.410;7.564;2022-08-11T00:27:39;100911.00;;;19.44;48.71
46223;BME280;31943;51.410;7.564;2022-08-11T00:30:06;100919.91;;;19.40;49.02
46223;BME280;31943;51.410;7.564;2022-08-11T00:32:32;100918.19;;;19.37;49.03
46223;BME280;31943;51.410;7.564;2022-08-11T00:35:00;100919.97;;;19.35;48.95
46223;BME280;31943;51.410;7.564;2022-08-11T00:37:27;100912.13;;;19.29;49.24
46223;BME280;31943;51.410;7.564;2022-08-11T00:39:55;100914.81;;;19.26;49.36
46223;BME280;31943;51.410;7.564;2022-08-11T00:45:10;100915.78;;;19.19;49.64
46223;BME280;31943;51.410;7.564;2022-08-11T00:47:47;100912.38;;;19.13;49.74
46223;BME280;31943;51.410;7.564;2022-08-11T00:50:23;100913.25;;;19.11;49.41
46223;BME280;31943;51.410;7.564;2022-08-11T00:53:04;100913.31;;;19.09;49.47
46223;BME280;31943;51.410;7.564;2022-08-11T00:55:49;100914.28;;;19.04;49.63
46223;BME280;31943;51.410;7.564;2022-08-11T01:01:19;100921.47;;;18.94;49.69
46223;BME280;31943;51.410;7.564;2022-08-11T01:04:08;100919.72;;;18.91;49.83
46223;BME280;31943;51.410;7.564;2022-08-11T01:07:00;100916.28;;;18.85;50.09
46223;BME280;31943;51.410;7.564;2022-08-11T01:09:48;100917.19;;;18.79;50.14
46223;BME280;31943;51.410;7.564;2022-08-11T01:12:42;100915.47;;;18.76;49.85
46223;BME280;31943;51.410;7.564;2022-08-11T01:15:58;100912.88;;;18.73;49.99
46223;BME280;31943;51.410;7.564;2022-08-11T01:18:54;100908.56;;;18.66;50.09
46223;BME280;31943;51.410;7.564;2022-08-11T01:21:56;100906.81;;;18.64;50.02
46223;BME280;31943;51.410;7.564;2022-08-11T01:28:39;100912.25;;;18.54;50.56
46223;BME280;31943;51.410;7.564;2022-08-11T01:31:32;100914.09;;;18.46;50.50
46223;BME280;31943;51.410;7.564;2022-08-11T01:40:42;100917.72;;;18.36;50.59
46223;BME280;31943;51.410;7.564;2022-08-11T01:46:31;100910.78;;;18.27;50.84
46223;BME280;31943;51.410;7.564;2022-08-11T01:49:05;100913.47;;;18.24;51.05
46223;BME280;31943;51.410;7.564;2022-08-11T01:51:44;100917.88;;;18.22;50.80
46223;BME280;31943;51.410;7.564;2022-08-11T01:54:23;100914.38;;;18.22;50.90
46223;BME280;31943;51.410;7.564;2022-08-11T01:57:09;100918.88;;;18.13;51.16
46223;BME280;31943;51.410;7.564;2022-08-11T01:59:44;100910.97;;;18.09;51.41
46223;BME280;31943;51.410;7.564;2022-08-11T02:02:28;100914.53;;;18.06;51.53
46223;BME280;31943;51.410;7.564;2022-08-11T02:05:02;100922.47;;;18.05;51.59
46223;BME280;31943;51.410;7.564;2022-08-11T02:07:36;100918.97;;;18.01;51.46
46223;BME280;31943;51.410;7.564;2022-08-11T02:10:18;100925.16;;;18.00;51.29
46223;BME280;31943;51.410;7.564;2022-08-11T02:12:50;100926.94;;;17.96;51.53
46223;BME280;31943;51.410;7.564;2022-08-11T02:15:23;100908.53;;;17.92;51.68
46223;BME280;31943;51.410;7.564;2022-08-11T02:17:59;100916.47;;;17.89;51.54
46223;BME280;31943;51.410;7.564;2022-08-11T02:20:34;100922.66;;;17.85;51.76
46223;BME280;31943;51.410;7.564;2022-08-11T02:23:11;100920.91;;;17.82;51.61
46223;BME280;31943;51.410;7.564;2022-08-11T02:25:51;100926.19;;;17.81;51.75
46223;BME280;31943;51.410;7.564;2022-08-11T02:28:21;100917.41;;;17.77;51.37
46223;BME280;31943;51.410;7.564;2022-08-11T02:30:59;100920.97;;;17.76;51.82
46223;BME280;31943;51.410;7.564;2022-08-11T02:33:28;100926.25;;;17.71;51.92
46223;BME280;31943;51.410;7.564;2022-08-11T02:36:05;100924.53;;;17.70;52.06
46223;BME280;31943;51.410;7.564;2022-08-11T02:38:34;100915.75;;;17.67;51.94
46223;BME280;31943;51.410;7.564;2022-08-11T02:41:09;100914.03;;;17.64;52.11
46223;BME280;31943;51.410;7.564;2022-08-11T02:43:47;100912.31;;;17.58;51.94
46223;BME280;31943;51.410;7.564;2022-08-11T02:46:21;100913.22;;;17.53;51.74
46223;BME280;31943;51.410;7.564;2022-08-11T02:49:03;100909.75;;;17.49;52.25
46223;BME280;31943;51.410;7.564;2022-08-11T02:51:38;100917.66;;;17.46;52.40
46223;BME280;31943;51.410;7.564;2022-08-11T02:54:09;100910.66;;;17.45;52.38
46223;BME280;31943;51.410;7.564;2022-08-11T02:56:44;100914.16;;;17.44;52.56
46223;BME280;31943;51.410;7.564;2022-08-11T02:59:22;100909.81;;;17.40;52.74
46223;BME280;31943;51.410;7.564;2022-08-11T03:01:54;100913.34;;;17.36;52.72
46223;BME280;31943;51.410;7.564;2022-08-11T03:04:29;100920.41;;;17.34;52.62
46223;BME280;31943;51.410;7.564;2022-08-11T03:07:05;100919.53;;;17.32;52.96
46223;BME280;31943;51.410;7.564;2022-08-11T03:09:43;100923.09;;;17.29;52.61
46223;BME280;31943;51.410;7.564;2022-08-11T03:12:15;100924.00;;;17.25;52.89
46223;BME280;31943;51.410;7.564;2022-08-11T03:14:47;100913.50;;;17.19;52.79
46223;BME280;31943;51.410;7.564;2022-08-11T03:17:24;100921.41;;;17.19;53.01
46223;BME280;31943;51.410;7.564;2022-08-11T03:20:02;100925.78;;;17.17;52.92
46223;BME280;31943;51.410;7.564;2022-08-11T03:22:35;100918.78;;;17.16;53.07
46223;BME280;31943;51.410;7.564;2022-08-11T03:25:07;100914.34;;;17.16;53.14
46223;BME280;31943;51.410;7.564;2022-08-11T03:27:45;100920.53;;;17.14;52.83
46223;BME280;31943;51.410;7.564;2022-08-11T03:30:15;100914.41;;;17.12;53.03
46223;BME280;31943;51.410;7.564;2022-08-11T03:32:57;100919.69;;;17.10;53.06
46223;BME280;31943;51.410;7.564;2022-08-11T03:35:30;100918.81;;;17.05;53.32
46223;BME280;31943;51.410;7.564;2022-08-11T03:38:05;100922.34;;;17.03;53.21
46223;BME280;31943;51.410;7.564;2022-08-11T03:40:49;100921.53;;;16.97;53.46
46223;BME280;31943;51.410;7.564;2022-08-11T03:43:27;100919.75;;;16.95;53.58
46223;BME280;31943;51.410;7.564;2022-08-11T03:46:00;100921.56;;;16.90;53.48
46223;BME280;31943;51.410;7.564;2022-08-11T03:48:39;100919.81;;;16.89;53.54
46223;BME280;31943;51.410;7.564;2022-08-11T03:51:14;100922.44;;;16.87;53.53
46223;BME280;31943;51.410;7.564;2022-08-11T03:54:09;100923.34;;;16.85;53.37
46223;BME280;31943;51.410;7.564;2022-08-11T04:00:04;100911.03;;;16.80;53.47
46223;BME280;31943;51.410;7.564;2022-08-11T04:02:54;100911.94;;;16.78;53.63
46223;BME280;31943;51.410;7.564;2022-08-11T04:05:38;100920.72;;;16.74;53.59
46223;BME280;31943;51.410;7.564;2022-08-11T04:12:08;100913.69;;;16.70;53.75
46223;BME280;31943;51.410;7.564;2022-08-11T04:14:50;100912.84;;;16.68;53.86
46223;BME280;31943;51.410;7.564;2022-08-11T04:18:13;100910.22;;;16.65;53.96
46223;BME280;31943;51.410;7.564;2022-08-11T04:21:04;100914.63;;;16.63;54.12
46223;BME280;31943;51.410;7.564;2022-08-11T04:27:00;100914.63;;;16.64;54.25
46223;BME280;31943;51.410;7.564;2022-08-11T04:29:44;100913.72;;;16.64;54.07
46223;BME280;31943;51.410;7.564;2022-08-11T04:38:24;100926.03;;;16.65;53.97
46223;BME280;31943;51.410;7.564;2022-08-11T04:41:49;100919.91;;;16.63;54.38
46223;BME280;31943;51.410;7.564;2022-08-11T04:44:58;100918.13;;;16.61;54.38
46223;BME280;31943;51.410;7.564;2022-08-11T04:47:47;100908.50;;;16.59;54.13
46223;BME280;31943;51.410;7.564;2022-08-11T04:50:25;100926.94;;;16.56;54.23
46223;BME280;31943;51.410;7.564;2022-08-11T04:53:21;100923.44;;;16.58;54.57
46223;BME280;31943;51.410;7.564;2022-08-11T04:56:04;100921.66;;;16.60;54.89
46223;BME280;31943;51.410;7.564;2022-08-11T04:58:37;100926.06;;;16.58;54.60
46223;BME280;31943;51.410;7.564;2022-08-11T05:01:18;100924.31;;;16.60;54.85
46223;BME280;31943;51.410;7.564;2022-08-11T05:04:12;100924.28;;;16.64;55.26
46223;BME280;31943;51.410;7.564;2022-08-11T05:07:03;100924.28;;;16.65;55.43
46223;BME280;31943;51.410;7.564;2022-08-11T05:09:38;100927.78;;;16.66;55.23
46223;BME280;31943;51.410;7.564;2022-08-11T05:12:21;100923.38;;;16.69;55.33
46223;BME280;31943;51.410;7.564;2022-08-11T05:14:51;100926.00;;;16.71;55.69
46223;BME280;31943;51.410;7.564;2022-08-11T05:17:26;100925.97;;;16.75;55.56
46223;BME280;31943;51.410;7.564;2022-08-11T05:19:52;100917.19;;;16.76;55.70
46223;BME280;31943;51.410;7.564;2022-08-11T05:22:24;100924.22;;;16.80;55.64
46223;BME280;31943;51.410;7.564;2022-08-11T05:25:00;100919.84;;;16.84;55.62
46223;BME280;31943;51.410;7.564;2022-08-11T05:27:35;100923.34;;;16.88;55.62
46223;BME280;31943;51.410;7.564;2022-08-11T05:30:04;100930.31;;;16.93;55.75
46223;BME280;31943;51.410;7.564;2022-08-11T05:32:35;100937.34;;;16.96;55.50
46223;BME280;31943;51.410;7.564;2022-08-11T05:35:04;100927.63;;;17.01;55.10
46223;BME280;31943;51.410;7.564;2022-08-11T05:37:38;100932.00;;;17.05;54.88
46223;BME280;31943;51.410;7.564;2022-08-11T05:40:08;100937.28;;;17.11;54.72
46223;BME280;31943;51.410;7.564;2022-08-11T05:42:38;100932.81;;;17.16;54.32
46223;BME280;31943;51.410;7.564;2022-08-11T05:45:11;100935.41;;;17.23;54.43
46223;BME280;31943;51.410;7.564;2022-08-11T05:47:38;100933.63;;;17.26;54.24
46223;BME280;31943;51.410;7.564;2022-08-11T05:50:07;100939.78;;;17.33;54.25
46223;BME280;31943;51.410;7.564;2022-08-11T05:52:35;100934.44;;;17.37;53.99
46223;BME280;31943;51.410;7.564;2022-08-11T05:55:04;100942.31;;;17.44;54.02
46223;BME280;31943;51.410;7.564;2022-08-11T05:57:32;100933.47;;;17.49;53.58
46223;BME280;31943;51.410;7.564;2022-08-11T05:59:59;100940.50;;;17.53;53.36
46223;BME280;31943;51.410;7.564;2022-08-11T06:02:26;100940.44;;;17.59;53.04
46223;BME280;31943;51.410;7.564;2022-08-11T06:04:54;100937.75;;;17.66;53.34
46223;BME280;31943;51.410;7.564;2022-08-11T06:07:26;100933.31;;;17.71;53.08
46223;BME280;31943;51.410;7.564;2022-08-11T06:09:54;100938.53;;;17.75;53.41
46223;BME280;31943;51.410;7.564;2022-08-11T06:12:24;100935.84;;;17.82;53.40
46223;BME280;31943;51.410;7.564;2022-08-11T06:14:53;100929.66;;;17.87;53.27
46223;BME280;31943;51.410;7.564;2022-08-11T06:17:22;100934.00;;;17.94;52.87
46223;BME280;31943;51.410;7.564;2022-08-11T06:19:48;100931.31;;;18.02;52.89
46223;BME280;31943;51.410;7.564;2022-08-11T06:22:19;100926.81;;;18.10;52.84
46223;BME280;31943;51.410;7.564;2022-08-11T06:24:51;100926.72;;;18.21;52.35
46223;BME280;31943;51.410;7.564;2022-08-11T06:27:20;100929.25;;;18.30;52.21
46223;BME280;31943;51.410;7.564;2022-08-11T06:29:49;100930.00;;;18.43;52.30
46223;BME280;31943;51.410;7.564;2022-08-11T06:32:15;100920.97;;;18.58;52.02
46223;BME280;31943;51.410;7.564;2022-08-11T06:35:01;100926.09;;;18.73;51.52
46223;BME280;31943;51.410;7.564;2022-08-11T06:40:25;100925.72;;;19.03;51.20
46223;BME280;31943;51.410;7.564;2022-08-11T06:42:57;100918.50;;;19.17;51.34
46223;BME280;31943;51.410;7.564;2022-08-11T06:45:30;100920.94;;;19.31;51.47
46223;BME280;31943;51.410;7.564;2022-08-11T06:47:58;100920.72;;;19.45;51.07
46223;BME280;31943;51.410;7.564;2022-08-11T06:50:24;100918.72;;;19.58;50.69
46223;BME280;31943;51.410;7.564;2022-08-11T06:52:52;100921.19;;;19.70;50.67
46223;BME280;31943;51.410;7.564;2022-08-11T06:55:21;100922.72;;;19.83;50.83
46223;BME280;31943;51.410;7.564;2022-08-11T06:57:47;100925.19;;;19.95;50.86
46223;BME280;31943;51.410;7.564;2022-08-11T07:00:17;100922.22;;;20.12;49.98
46223;BME280;31943;51.410;7.564;2022-08-11T07:02:47;100913.06;;;20.29;49.77
46223;BME280;31943;51.410;7.564;2022-08-11T07:05:19;100913.66;;;20.45;49.77
46223;BME280;31943;51.410;7.564;2022-08-11T07:08:15;100912.34;;;20.66;49.70
46223;BME280;31943;51.410;7.564;2022-08-11T07:10:53;100918.13;;;20.85;49.35
46223;BME280;31943;51.410;7.564;2022-08-11T07:13:26;100912.50;;;20.99;49.01
46223;BME280;31943;51.410;7.564;2022-08-11T07:15:55;100913.09;;;21.13;49.16
46223;BME280;31943;51.410;7.564;2022-08-11T07:18:24;100910.13;;;21.27;49.25
46223;BME280;31943;51.410;7.564;2022-08-11T07:20:51;100909.72;;;21.42;48.25
46223;BME280;31943;51.410;7.564;2022-08-11T07:23:18;100905.81;;;21.59;48.28
46223;BME280;31943;51.410;7.564;2022-08-11T07:25:46;100911.66;;;21.73;48.58
46223;BME280;31943;51.410;7.564;2022-08-11T07:28:24;100902.38;;;21.89;47.73
46223;BME280;31943;51.410;7.564;2022-08-11T07:30:56;100903.72;;;22.06;47.49
46223;BME280;31943;51.410;7.564;2022-08-11T07:33:37;100912.16;;;22.20;47.79
46223;BME280;31943;51.410;7.564;2022-08-11T07:36:06;100906.31;;;22.40;47.14
46223;BME280;31943;51.410;7.564;2022-08-11T07:38:43;100897.84;;;22.57;46.74
46223;BME280;31943;51.410;7.564;2022-08-11T07:41:11;100898.19;;;22.76;45.87
46223;BME280;31943;51.410;7.564;2022-08-11T07:43:38;100901.13;;;22.95;45.73
46223;BME280;31943;51.410;7.564;2022-08-11T07:46:06;100900.56;;;23.15;45.28
46223;BME280;31943;51.410;7.564;2022-08-11T07:48:33;100894.59;;;23.35;45.22
46223;BME280;31943;51.410;7.564;2022-08-11T07:51:00;100899.41;;;23.51;43.77
46223;BME280;31943;51.410;7.564;2022-08-11T07:53:27;100896.03;;;23.72;43.86
46223;BME280;31943;51.410;7.564;2022-08-11T07:55:55;100897.91;;;23.95;43.23
46223;BME280;31943;51.410;7.564;2022-08-11T07:58:23;100890.94;;;24.16;42.67
46223;BME280;31943;51.410;7.564;2022-08-11T08:00:51;100900.06;;;24.34;42.28
46223;BME280;31943;51.410;7.564;2022-08-11T08:03:20;100896.81;;;24.51;42.32
46223;BME280;31943;51.410;7.564;2022-08-11T08:05:47;100897.84;;;24.71;42.24
46223;BME280;31943;51.410;7.564;2022-08-11T08:08:14;100895.47;;;24.86;40.88
46223;BME280;31943;51.410;7.564;2022-08-11T08:10:40;100893.28;;;24.96;40.21
46223;BME280;31943;51.410;7.564;2022-08-11T08:13:06;100892.69;;;25.12;40.12
46223;BME280;31943;51.410;7.564;2022-08-11T08:15:32;100894.72;;;25.29;40.52
46223;BME280;31943;51.410;7.564;2022-08-11T08:17:59;100890.66;;;25.40;39.29
46223;BME280;31943;51.410;7.564;2022-08-11T08:20:29;100893.56;;;25.56;38.78
46223;BME280;31943;51.410;7.564;2022-08-11T08:22:57;100891.97;;;25.73;39.24
46223;BME280;31943;51.410;7.564;2022-08-11T08:25:25;100902.00;;;25.88;38.20
46223;BME280;31943;51.410;7.564;2022-08-11T08:27:51;100900.75;;;25.97;38.09
46223;BME280;31943;51.410;7.564;2022-08-11T08:30:17;100898.47;;;26.08;37.77
46223;BME280;31943;51.410;7.564;2022-08-11T08:32:43;100895.19;;;26.22;37.88
46223;BME280;31943;51.410;7.564;2022-08-11T08:35:10;100894.22;;;26.43;38.34
46223;BME280;31943;51.410;7.564;2022-08-11T08:37:37;100890.00;;;26.58;37.41
46223;BME280;31943;51.410;7.564;2022-08-11T08:40:05;100894.09;;;26.66;37.23
46223;BME280;31943;51.410;7.564;2022-08-11T08:42:38;100885.88;;;26.70;37.16
46223;BME280;31943;51.410;7.564;2022-08-11T08:45:06;100887.91;;;26.84;37.45
46223;BME280;31943;51.410;7.564;2022-08-11T08:47:35;100889.69;;;27.02;36.26
46223;BME280;31943;51.410;7.564;2022-08-11T08:50:04;100889.91;;;27.17;36.11
46223;BME280;31943;51.410;7.564;2022-08-11T08:52:36;100896.31;;;27.32;35.31
46223;BME280;31943;51.410;7.564;2022-08-11T08:55:05;100890.44;;;27.42;35.64
46223;BME280;31943;51.410;7.564;2022-08-11T08:57:33;100895.25;;;27.53;34.90
46223;BME280;31943;51.410;7.564;2022-08-11T09:00:01;100888.72;;;27.59;35.11
46223;BME280;31943;51.410;7.564;2022-08-11T09:02:27;100893.28;;;27.74;34.43
46223;BME280;31943;51.410;7.564;2022-08-11T09:04:53;100891.75;;;27.88;33.70
46223;BME280;31943;51.410;7.564;2022-08-11T09:07:21;100882.91;;;28.03;33.03
46223;BME280;31943;51.410;7.564;2022-08-11T09:09:49;100884.91;;;28.15;32.64
46223;BME280;31943;51.410;7.564;2022-08-11T09:12:18;100888.06;;;28.24;32.09
46223;BME280;31943;51.410;7.564;2022-08-11T09:14:47;100884.88;;;28.33;32.24
46223;BME280;31943;51.410;7.564;2022-08-11T09:17:13;100874.19;;;28.49;31.37
46223;BME280;31943;51.410;7.564;2022-08-11T09:19:39;100880.94;;;28.56;30.37
46223;BME280;31943;51.410;7.564;2022-08-11T09:22:05;100876.13;;;28.63;30.05
46223;BME280;31943;51.410;7.564;2022-08-11T09:24:32;100866.09;;;28.66;29.28
46223;BME280;31943;51.410;7.564;2022-08-11T09:27:04;100860.03;;;28.78;28.85
46223;BME280;31943;51.410;7.564;2022-08-11T09:29:32;100862.88;;;28.91;28.79
46223;BME280;31943;51.410;7.564;2022-08-11T09:31:59;100868.31;;;29.06;28.17
46223;BME280;31943;51.410;7.564;2022-08-11T09:34:27;100866.09;;;29.14;27.13
46223;BME280;31943;51.410;7.564;2022-08-11T09:36:53;100868.34;;;29.22;27.27
46223;BME280;31943;51.410;7.564;2022-08-11T09:39:19;100864.06;;;29.33;26.87
46223;BME280;31943;51.410;7.564;2022-08-11T09:41:46;100864.63;;;29.54;26.79
46223;BME280;31943;51.410;7.564;2022-08-11T09:44:12;100856.16;;;29.76;26.85
46223;BME280;31943;51.410;7.564;2022-08-11T09:46:40;100856.84;;;29.94;26.12
46223;BME280;31943;51.410;7.564;2022-08-11T09:49:06;100857.81;;;30.08;26.31
46223;BME280;31943;51.410;7.564;2022-08-11T09:51:33;100853.88;;;30.13;25.81
46223;BME280;31943;51.410;7.564;2022-08-11T09:53:59;100856.88;;;30.23;25.45
46223;BME280;31943;51.410;7.564;2022-08-11T09:56:28;100853.72;;;30.31;25.41
46223;BME280;31943;51.410;7.564;2022-08-11T09:58:54;100852.25;;;30.40;24.64
46223;BME280;31943;51.410;7.564;2022-08-11T10:01:22;100848.91;;;30.36;23.51
46223;BME280;31943;51.410;7.564;2022-08-11T10:03:53;100843.09;;;30.28;24.66
46223;BME280;31943;51.410;7.564;2022-08-11T10:06:20;100847.19;;;30.35;24.45
46223;BME280;31943;51.410;7.564;2022-08-11T10:08:46;100844.69;;;30.46;23.97
46223;BME280;31943;51.410;7.564;2022-08-11T10:11:17;100846.88;;;30.54;24.27
46223;BME280;31943;51.410;7.564;2022-08-11T10:13:46;100844.06;;;30.55;24.20
46223;BME280;31943;51.410;7.564;2022-08-11T10:16:15;100842.81;;;30.61;23.87
46223;BME280;31943;51.410;7.564;2022-08-11T10:18:42;100843.38;;;30.66;23.72
46223;BME280;31943;51.410;7.564;2022-08-11T10:21:14;100838.66;;;30.70;24.00
46223;BME280;31943;51.410;7.564;2022-08-11T10:23:40;100833.13;;;30.86;23.62
46223;BME280;31943;51.410;7.564;2022-08-11T10:26:07;100831.59;;;30.96;23.37
46223;BME280;31943;51.410;7.564;2022-08-11T10:28:34;100834.44;;;31.07;23.49
46223;BME280;31943;51.410;7.564;2022-08-11T10:31:00;100827.00;;;31.11;23.21
46223;BME280;31943;51.410;7.564;2022-08-11T10:33:28;100828.63;;;31.13;23.99
46223;BME280;31943;51.410;7.564;2022-08-11T10:35:53;100832.84;;;31.18;23.86
46223;BME280;31943;51.410;7.564;2022-08-11T10:38:21;100834.03;;;31.26;23.79
46223;BME280;31943;51.410;7.564;2022-08-11T10:40:47;100838.72;;;31.37;23.15
46223;BME280;31943;51.410;7.564;2022-08-11T10:43:13;100824.59;;;31.33;22.93
46223;BME280;31943;51.410;7.564;2022-08-11T10:45:42;100830.06;;;31.32;22.61
46223;BME280;31943;51.410;7.564;2022-08-11T10:48:09;100826.31;;;31.34;22.91
46223;BME280;31943;51.410;7.564;2022-08-11T10:50:36;100827.50;;;31.43;23.31
46223;BME280;31943;51.410;7.564;2022-08-11T10:53:02;100821.16;;;31.44;23.30
46223;BME280;31943;51.410;7.564;2022-08-11T10:55:31;100816.78;;;31.56;23.32
46223;BME280;31943;51.410;7.564;2022-08-11T10:57:57;100804.47;;;31.65;22.33
46223;BME280;31943;51.410;7.564;2022-08-11T11:00:23;100808.94;;;31.66;22.21
46223;BME280;31943;51.410;7.564;2022-08-11T11:02:49;100811.19;;;31.72;22.72
46223;BME280;31943;51.410;7.564;2022-08-11T11:05:22;100808.56;;;31.83;22.41
46223;BME280;31943;51.410;7.564;2022-08-11T11:07:52;100804.38;;;31.92;22.07
46223;BME280;31943;51.410;7.564;2022-08-11T11:10:20;100799.41;;;31.99;21.72
46223;BME280;31943;51.410;7.564;2022-08-11T11:12:52;100796.19;;;32.06;21.83
46223;BME280;31943;51.410;7.564;2022-08-11T11:15:20;100796.53;;;32.02;21.38
46223;BME280;31943;51.410;7.564;2022-08-11T11:17:51;100794.34;;;31.94;22.43
46223;BME280;31943;51.410;7.564;2022-08-11T11:20:19;100787.66;;;32.00;22.65
46223;BME280;31943;51.410;7.564;2022-08-11T11:22:49;100783.56;;;32.07;22.36
46223;BME280;31943;51.410;7.564;2022-08-11T11:25:24;100783.34;;;32.10;22.28
46223;BME280;31943;51.410;7.564;2022-08-11T11:28:10;100784.19;;;32.23;22.07
46223;BME280;31943;51.410;7.564;2022-08-11T11:30:47;100772.38;;;32.24;21.84
46223;BME280;31943;51.410;7.564;2022-08-11T11:33:20;100769.81;;;32.23;22.49
46223;BME280;31943;51.410;7.564;2022-08-11T11:35:59;100779.88;;;32.21;21.99
46223;BME280;31943;51.410;7.564;2022-08-11T11:38:29;100764.09;;;32.15;22.34
46223;BME280;31943;51.410;7.564;2022-08-11T11:40:55;100762.38;;;32.14;22.54
46223;BME280;31943;51.410;7.564;2022-08-11T11:43:23;100761.03;;;32.32;22.09
46223;BME280;31943;51.410;7.564;2022-08-11T11:45:48;100764.81;;;32.42;22.14
46223;BME280;31943;51.410;7.564;2022-08-11T11:48:14;100758.81;;;32.50;20.86
46223;BME280;31943;51.410;7.564;2022-08-11T11:50:40;100758.28;;;32.58;20.72
46223;BME280;31943;51.410;7.564;2022-08-11T11:53:08;100750.38;;;32.55;21.19
46223;BME280;31943;51.410;7.564;2022-08-11T11:55:35;100748.34;;;32.58;21.94
46223;BME280;31943;51.410;7.564;2022-08-11T11:58:03;100755.41;;;32.72;21.50
46223;BME280;31943;51.410;7.564;2022-08-11T12:00:30;100752.53;;;32.86;21.16
46223;BME280;31943;51.410;7.564;2022-08-11T12:02:58;100752.78;;;32.83;21.55
46223;BME280;31943;51.410;7.564;2022-08-11T12:05:24;100744.72;;;32.70;22.34
46223;BME280;31943;51.410;7.564;2022-08-11T12:07:51;100726.44;;;32.74;22.70
46223;BME280;31943;51.410;7.564;2022-08-11T12:10:17;100736.31;;;32.62;22.33
46223;BME280;31943;51.410;7.564;2022-08-11T12:12:44;100737.47;;;32.71;22.05
46223;BME280;31943;51.410;7.564;2022-08-11T12:15:11;100731.16;;;32.95;21.91
46223;BME280;31943;51.410;7.564;2022-08-11T12:17:38;100734.47;;;33.11;22.31
46223;BME280;31943;51.410;7.564;2022-08-11T12:20:06;100732.66;;;33.23;21.32
46223;BME280;31943;51.410;7.564;2022-08-11T12:22:33;100724.69;;;33.08;20.93
46223;BME280;31943;51.410;7.564;2022-08-11T12:25:00;100722.13;;;33.07;21.70
46223;BME280;31943;51.410;7.564;2022-08-11T12:27:28;100713.09;;;33.19;21.65
46223;BME280;31943;51.410;7.564;2022-08-11T12:29:57;100710.88;;;33.24;20.09
46223;BME280;31943;51.410;7.564;2022-08-11T12:32:30;100713.88;;;33.33;20.24
46223;BME280;31943;51.410;7.564;2022-08-11T12:34:59;100719.78;;;33.49;19.74
46223;BME280;31943;51.410;7.564;2022-08-11T12:37:29;100703.56;;;33.60;19.14
46223;BME280;31943;51.410;7.564;2022-08-11T12:39:58;100703.56;;;33.60;18.92
46223;BME280;31943;51.410;7.564;2022-08-11T12:42:25;100701.19;;;33.56;19.76
46223;BME280;31943;51.410;7.564;2022-08-11T12:44:53;100696.69;;;33.67;19.84
46223;BME280;31943;51.410;7.564;2022-08-11T12:47:20;100697.31;;;33.82;19.93
46223;BME280;31943;51.410;7.564;2022-08-11T12:49:48;100697.06;;;33.85;20.67
46223;BME280;31943;51.410;7.564;2022-08-11T12:52:21;100694.59;;;33.82;20.46
46223;BME280;31943;51.410;7.564;2022-08-11T12:54:52;100693.97;;;33.90;20.30
46223;BME280;31943;51.410;7.564;2022-08-11T12:57:26;100690.25;;;34.02;19.63
46223;BME280;31943;51.410;7.564;2022-08-11T12:59:53;100686.47;;;34.05;19.43
46223;BME280;31943;51.410;7.564;2022-08-11T13:02:23;100683.16;;;34.01;19.38
46223;BME280;31943;51.410;7.564;2022-08-11T13:04:51;100682.25;;;34.01;19.73
46223;BME280;31943;51.410;7.564;2022-08-11T13:07:18;100674.06;;;33.80;19.66
46223;BME280;31943;51.410;7.564;2022-08-11T13:09:44;100676.03;;;33.78;20.68
46223;BME280;31943;51.410;7.564;2022-08-11T13:12:11;100673.06;;;33.92;19.61
46223;BME280;31943;51.410;7.564;2022-08-11T13:14:37;100668.00;;;33.99;20.85
46223;BME280;31943;51.410;7.564;2022-08-11T13:17:04;100667.38;;;34.18;19.46
46223;BME280;31943;51.410;7.564;2022-08-11T13:19:31;100670.94;;;34.18;20.37
46223;BME280;31943;51.410;7.564;2022-08-11T13:21:57;100670.56;;;34.00;19.70
46223;BME280;31943;51.410;7.564;2022-08-11T13:24:25;100662.13;;;33.71;19.29
46223;BME280;31943;51.410;7.564;2022-08-11T13:26:51;100648.81;;;33.57;20.18
46223;BME280;31943;51.410;7.564;2022-08-11T13:29:18;100659.75;;;33.55;19.98
46223;BME280;31943;51.410;7.564;2022-08-11T13:31:44;100647.22;;;33.43;19.71
46223;BME280;31943;51.410;7.564;2022-08-11T13:34:10;100651.28;;;33.37;19.68
46223;BME280;31943;51.410;7.564;2022-08-11T13:36:37;100649.41;;;33.26;19.44
46223;BME280;31943;51.410;7.564;2022-08-11T13:39:03;100653.84;;;33.27;20.23
46223;BME280;31943;51.410;7.564;2022-08-11T13:41:31;100645.25;;;33.45;20.88
46223;BME280;31943;51.410;7.564;2022-08-11T13:43:57;100633.97;;;33.62;19.87
46223;BME280;31943;51.410;7.564;2022-08-11T13:46:24;100641.19;;;33.84;20.19
46223;BME280;31943;51.410;7.564;2022-08-11T13:48:52;100643.78;;;33.97;19.47
46223;BME280;31943;51.410;7.564;2022-08-11T13:51:18;100640.97;;;33.87;19.61
46223;BME280;31943;51.410;7.564;2022-08-11T13:53:45;100638.66;;;33.72;19.34